sensor_id;sensor_type;location;lat;lon;timestamp;P1;durP1;ratioP1;P2;durP2;ratioP2
16512;SDS011;8369;48.030;11.598;2023-03-08T00:01:12;13.47;;;6.27;;
16512;SDS011;8369;48.030;11.598;2023-03-08T00:03:39;11.63;;;5.97;;
16512;SDS011;8369;48.030;11.598;2023-03-08T00:06:06;12.40;;;6.43;;
16512;SDS011;8369;48.030;11.598;2023-03-08T00:08:33;11.17;;;6.43;;
16512;SDS011;8369;48.030;11.598;2023-03-08T00:10:59;12.27;;;7.00;;
16512;SDS011;8369;48.030;11.598;2023-03-08T00:13:28;10.77;;;6.00;;
16512;SDS011;8369;48.030;11.598;2023-03-08T00:15:57;13.10;;;6.57;;
16512;SDS011;8369;48.030;11.598;2023-03-08T00:18:27;12.63;;;6.70;;
16512;SDS011;8369;48.030;11.598;2023-03-08T00:21:03;11.23;;;6.27;;
16512;SDS011;8369;48.030;11.598;2023-03-08T00:23:32;10.77;;;6.17;;
16512;SDS011;8369;48.030;11.598;2023-03-08T00:25:59;11.00;;;6.53;;
16512;SDS011;8369;48.030;11.598;2023-03-08T00:28:25;10.60;;;6.30;;
16512;SDS011;8369;48.030;11.598;2023-03-08T00:30:59;11.63;;;5.87;;
16512;SDS011;8369;48.030;11.598;2023-03-08T00:33:27;9.70;;;5.60;;
16512;SDS011;8369;48.030;11.598;2023-03-08T00:35:55;10.57;;;6.00;;
16512;SDS011;8369;48.030;11.598;2023-03-08T00:38:41;9.77;;;6.07;;
16512;SDS011;8369;48.030;11.598;2023-03-08T00:41:07;10.93;;;6.63;;
16512;SDS011;8369;48.030;11.598;2023-03-08T00:43:34;12.60;;;5.90;;
16512;SDS011;8369;48.030;11.598;2023-03-08T00:46:01;12.40;;;6.23;;
16512;SDS011;8369;48.030;11.598;2023-03-08T00:48:29;10.40;;;6.30;;
16512;SDS011;8369;48.030;11.598;2023-03-08T00:50:55;11.63;;;6.23;;
16512;SDS011;8369;48.030;11.598;2023-03-08T00:53:21;9.40;;;6.30;;
16512;SDS011;8369;48.030;11.598;2023-03-08T00:55:48;9.57;;;5.63;;
16512;SDS011;8369;48.030;11.598;2023-03-08T00:58:23;12.13;;;6.07;;
16512;SDS011;8369;48.030;11.598;2023-03-08T01:00:50;11.90;;;5.90;;
16512;SDS011;8369;48.030;11.598;2023-03-08T01:03:17;11.10;;;5.63;;
16512;SDS011;8369;48.030;11.598;2023-03-08T01:08:32;9.13;;;5.50;;
16512;SDS011;8369;48.030;11.598;2023-03-08T01:11:01;9.13;;;5.90;;
16512;SDS011;8369;48.030;11.598;2023-03-08T01:13:29;8.67;;;5.40;;
16512;SDS011;8369;48.030;11.598;2023-03-08T01:15:57;8.97;;;5.70;;
16512;SDS011;8369;48.030;11.598;2023-03-08T01:18:24;9.97;;;6.40;;
16512;SDS011;8369;48.030;11.598;2023-03-08T01:20:56;10.57;;;5.30;;
16512;SDS011;8369;48.030;11.598;2023-03-08T01:23:24;10.53;;;6.03;;
16512;SDS011;8369;48.030;11.598;2023-03-08T01:25:58;11.00;;;6.17;;
16512;SDS011;8369;48.030;11.598;2023-03-08T01:28:26;9.73;;;5.90;;
16512;SDS011;8369;48.030;11.598;2023-03-08T01:30:52;9.30;;;5.70;;
16512;SDS011;8369;48.030;11.598;2023-03-08T01:33:20;10.33;;;5.47;;
16512;SDS011;8369;48.030;11.598;2023-03-08T01:35:47;11.90;;;6.00;;
16512;SDS011;8369;48.030;11.598;2023-03-08T01:38:13;9.37;;;5.67;;
16512;SDS011;8369;48.030;11.598;2023-03-08T01:40:40;12.90;;;6.43;;
16512;SDS011;8369;48.030;11.598;2023-03-08T01:43:26;9.97;;;6.50;;
16512;SDS011;8369;48.030;11.598;2023-03-08T01:48:29;10.80;;;6.37;;
16512;SDS011;8369;48.030;11.598;2023-03-08T01:51:00;13.80;;;7.13;;
16512;SDS011;8369;48.030;11.598;2023-03-08T01:53:27;12.23;;;6.70;;
16512;SDS011;8369;48.030;11.598;2023-03-08T01:55:53;11.67;;;7.07;;
16512;SDS011;8369;48.030;11.598;2023-03-08T01:58:20;9.60;;;6.30;;
16512;SDS011;8369;48.030;11.598;2023-03-08T02:00:47;11.37;;;6.73;;
16512;SDS011;8369;48.030;11.598;2023-03-08T02:03:13;10.80;;;6.17;;
16512;SDS011;8369;48.030;11.598;2023-03-08T02:05:40;13.40;;;6.33;;
16512;SDS011;8369;48.030;11.598;2023-03-08T02:11:43;11.33;;;6.83;;
16512;SDS011;8369;48.030;11.598;2023-03-08T02:14:11;11.10;;;6.03;;
16512;SDS011;8369;48.030;11.598;2023-03-08T02:16:37;12.93;;;7.47;;
16512;SDS011;8369;48.030;11.598;2023-03-08T02:19:05;9.77;;;6.20;;
16512;SDS011;8369;48.030;11.598;2023-03-08T02:21:41;13.73;;;7.03;;
16512;SDS011;8369;48.030;11.598;2023-03-08T02:24:21;10.43;;;6.80;;
16512;SDS011;8369;48.030;11.598;2023-03-08T02:26:51;13.30;;;7.20;;
16512;SDS011;8369;48.030;11.598;2023-03-08T02:29:21;10.47;;;6.63;;
16512;SDS011;8369;48.030;11.598;2023-03-08T02:31:47;21.63;;;8.30;;
16512;SDS011;8369;48.030;11.598;2023-03-08T02:34:14;33.97;;;15.57;;
16512;SDS011;8369;48.030;11.598;2023-03-08T02:36:41;36.73;;;16.60;;
16512;SDS011;8369;48.030;11.598;2023-03-08T02:39:08;19.50;;;11.23;;
16512;SDS011;8369;48.030;11.598;2023-03-08T02:41:35;15.00;;;8.23;;
16512;SDS011;8369;48.030;11.598;2023-03-08T02:44:02;15.30;;;7.40;;
16512;SDS011;8369;48.030;11.598;2023-03-08T02:46:28;11.60;;;6.87;;
16512;SDS011;8369;48.030;11.598;2023-03-08T02:48:55;12.23;;;7.23;;
16512;SDS011;8369;48.030;11.598;2023-03-08T02:51:21;11.83;;;6.63;;
16512;SDS011;8369;48.030;11.598;2023-03-08T02:53:48;11.33;;;6.90;;
16512;SDS011;8369;48.030;11.598;2023-03-08T02:56:15;12.67;;;6.63;;
16512;SDS011;8369;48.030;11.598;2023-03-08T02:58:41;12.80;;;7.37;;
16512;SDS011;8369;48.030;11.598;2023-03-08T03:01:11;11.20;;;6.60;;
16512;SDS011;8369;48.030;11.598;2023-03-08T03:03:39;12.70;;;6.83;;
16512;SDS011;8369;48.030;11.598;2023-03-08T03:06:16;11.70;;;7.30;;
16512;SDS011;8369;48.030;11.598;2023-03-08T03:08:45;10.93;;;6.20;;
16512;SDS011;8369;48.030;11.598;2023-03-08T03:11:12;13.73;;;6.80;;
16512;SDS011;8369;48.030;11.598;2023-03-08T03:13:41;12.20;;;6.63;;
16512;SDS011;8369;48.030;11.598;2023-03-08T03:16:10;14.43;;;7.00;;
16512;SDS011;8369;48.030;11.598;2023-03-08T03:18:38;13.20;;;7.10;;
16512;SDS011;8369;48.030;11.598;2023-03-08T03:21:06;11.97;;;7.33;;
16512;SDS011;8369;48.030;11.598;2023-03-08T03:23:35;12.47;;;7.00;;
16512;SDS011;8369;48.030;11.598;2023-03-08T03:26:04;10.90;;;6.70;;
16512;SDS011;8369;48.030;11.598;2023-03-08T03:28:36;12.07;;;7.03;;
16512;SDS011;8369;48.030;11.598;2023-03-08T03:31:07;14.27;;;7.30;;
16512;SDS011;8369;48.030;11.598;2023-03-08T03:33:39;16.70;;;7.97;;
16512;SDS011;8369;48.030;11.598;2023-03-08T03:36:07;10.63;;;6.97;;
16512;SDS011;8369;48.030;11.598;2023-03-08T03:42:17;11.37;;;7.23;;
16512;SDS011;8369;48.030;11.598;2023-03-08T03:44:45;13.67;;;7.97;;
16512;SDS011;8369;48.030;11.598;2023-03-08T03:47:12;12.17;;;7.70;;
16512;SDS011;8369;48.030;11.598;2023-03-08T03:49:40;13.23;;;7.37;;
16512;SDS011;8369;48.030;11.598;2023-03-08T03:52:06;13.17;;;7.47;;
16512;SDS011;8369;48.030;11.598;2023-03-08T03:54:33;11.43;;;7.57;;
16512;SDS011;8369;48.030;11.598;2023-03-08T03:57:00;13.17;;;7.20;;
16512;SDS011;8369;48.030;11.598;2023-03-08T03:59:26;10.63;;;7.23;;
16512;SDS011;8369;48.030;11.598;2023-03-08T04:01:52;13.63;;;7.00;;
16512;SDS011;8369;48.030;11.598;2023-03-08T04:04:19;11.37;;;6.60;;
16512;SDS011;8369;48.030;11.598;2023-03-08T04:06:47;15.87;;;7.10;;
16512;SDS011;8369;48.030;11.598;2023-03-08T04:09:15;11.20;;;5.90;;
16512;SDS011;8369;48.030;11.598;2023-03-08T04:11:42;11.77;;;7.07;;
16512;SDS011;8369;48.030;11.598;2023-03-08T04:14:10;10.43;;;6.27;;
16512;SDS011;8369;48.030;11.598;2023-03-08T04:16:38;11.43;;;6.97;;
16512;SDS011;8369;48.030;11.598;2023-03-08T04:19:08;13.10;;;7.70;;
16512;SDS011;8369;48.030;11.598;2023-03-08T04:21:37;13.97;;;7.67;;
16512;SDS011;8369;48.030;11.598;2023-03-08T04:24:04;14.23;;;8.30;;
16512;SDS011;8369;48.030;11.598;2023-03-08T04:26:30;11.73;;;7.37;;
16512;SDS011;8369;48.030;11.598;2023-03-08T04:28:57;15.27;;;8.40;;
16512;SDS011;8369;48.030;11.598;2023-03-08T04:31:27;15.87;;;7.23;;
16512;SDS011;8369;48.030;11.598;2023-03-08T04:33:54;15.87;;;7.40;;
16512;SDS011;8369;48.030;11.598;2023-03-08T04:36:22;14.13;;;7.37;;
16512;SDS011;8369;48.030;11.598;2023-03-08T04:38:49;14.17;;;7.97;;
16512;SDS011;8369;48.030;11.598;2023-03-08T04:41:16;13.20;;;7.73;;
16512;SDS011;8369;48.030;11.598;2023-03-08T04:46:15;17.23;;;7.77;;
16512;SDS011;8369;48.030;11.598;2023-03-08T04:48:43;15.60;;;7.87;;
16512;SDS011;8369;48.030;11.598;2023-03-08T04:51:11;16.07;;;8.47;;
16512;SDS011;8369;48.030;11.598;2023-03-08T04:53:44;15.27;;;8.03;;
16512;SDS011;8369;48.030;11.598;2023-03-08T04:56:11;15.33;;;8.23;;
16512;SDS011;8369;48.030;11.598;2023-03-08T04:58:39;17.43;;;8.30;;
16512;SDS011;8369;48.030;11.598;2023-03-08T05:01:13;16.67;;;8.50;;
16512;SDS011;8369;48.030;11.598;2023-03-08T05:03:41;18.53;;;10.13;;
16512;SDS011;8369;48.030;11.598;2023-03-08T05:06:08;21.37;;;10.37;;
16512;SDS011;8369;48.030;11.598;2023-03-08T05:08:37;15.53;;;9.57;;
16512;SDS011;8369;48.030;11.598;2023-03-08T05:11:03;13.97;;;8.10;;
16512;SDS011;8369;48.030;11.598;2023-03-08T05:13:32;17.73;;;9.37;;
16512;SDS011;8369;48.030;11.598;2023-03-08T05:16:04;17.07;;;7.90;;
16512;SDS011;8369;48.030;11.598;2023-03-08T05:18:31;15.73;;;8.63;;
16512;SDS011;8369;48.030;11.598;2023-03-08T05:20:59;15.37;;;8.73;;
16512;SDS011;8369;48.030;11.598;2023-03-08T05:23:29;15.03;;;8.77;;
16512;SDS011;8369;48.030;11.598;2023-03-08T05:25:57;18.97;;;11.23;;
16512;SDS011;8369;48.030;11.598;2023-03-08T05:28:26;17.70;;;10.30;;
16512;SDS011;8369;48.030;11.598;2023-03-08T05:31:10;18.80;;;10.10;;
16512;SDS011;8369;48.030;11.598;2023-03-08T05:33:39;15.20;;;8.43;;
16512;SDS011;8369;48.030;11.598;2023-03-08T05:36:07;14.67;;;9.10;;
16512;SDS011;8369;48.030;11.598;2023-03-08T05:38:36;13.67;;;8.90;;
16512;SDS011;8369;48.030;11.598;2023-03-08T05:41:03;19.80;;;9.73;;
16512;SDS011;8369;48.030;11.598;2023-03-08T05:43:31;13.37;;;8.57;;
16512;SDS011;8369;48.030;11.598;2023-03-08T05:46:02;17.17;;;9.53;;
16512;SDS011;8369;48.030;11.598;2023-03-08T05:48:32;13.50;;;8.47;;
16512;SDS011;8369;48.030;11.598;2023-03-08T05:51:06;15.53;;;8.33;;
16512;SDS011;8369;48.030;11.598;2023-03-08T05:53:34;13.07;;;7.77;;
16512;SDS011;8369;48.030;11.598;2023-03-08T05:56:15;21.97;;;8.00;;
16512;SDS011;8369;48.030;11.598;2023-03-08T05:58:43;14.47;;;8.50;;
16512;SDS011;8369;48.030;11.598;2023-03-08T06:01:11;13.87;;;8.03;;
16512;SDS011;8369;48.030;11.598;2023-03-08T06:03:42;16.37;;;9.10;;
16512;SDS011;8369;48.030;11.598;2023-03-08T06:06:09;16.23;;;9.27;;
16512;SDS011;8369;48.030;11.598;2023-03-08T06:08:37;12.30;;;7.73;;
16512;SDS011;8369;48.030;11.598;2023-03-08T06:11:07;13.90;;;7.27;;
16512;SDS011;8369;48.030;11.598;2023-03-08T06:13:34;15.53;;;9.07;;
16512;SDS011;8369;48.030;11.598;2023-03-08T06:16:02;18.70;;;10.23;;
16512;SDS011;8369;48.030;11.598;2023-03-08T06:18:30;16.00;;;9.20;;
16512;SDS011;8369;48.030;11.598;2023-03-08T06:21:02;17.00;;;9.80;;
16512;SDS011;8369;48.030;11.598;2023-03-08T06:23:29;18.00;;;8.53;;
16512;SDS011;8369;48.030;11.598;2023-03-08T06:25:57;15.80;;;8.80;;
16512;SDS011;8369;48.030;11.598;2023-03-08T06:28:25;14.07;;;8.00;;
16512;SDS011;8369;48.030;11.598;2023-03-08T06:30:53;14.63;;;8.30;;
16512;SDS011;8369;48.030;11.598;2023-03-08T06:33:21;17.23;;;9.57;;
16512;SDS011;8369;48.030;11.598;2023-03-08T06:35:56;16.40;;;9.77;;
16512;SDS011;8369;48.030;11.598;2023-03-08T06:38:25;15.73;;;9.13;;
16512;SDS011;8369;48.030;11.598;2023-03-08T06:40:53;12.13;;;7.60;;
16512;SDS011;8369;48.030;11.598;2023-03-08T06:43:21;16.03;;;9.03;;
16512;SDS011;8369;48.030;11.598;2023-03-08T06:45:47;18.33;;;9.03;;
16512;SDS011;8369;48.030;11.598;2023-03-08T06:48:17;18.33;;;9.73;;
16512;SDS011;8369;48.030;11.598;2023-03-08T06:50:44;15.03;;;8.30;;
16512;SDS011;8369;48.030;11.598;2023-03-08T06:53:12;16.33;;;9.23;;
16512;SDS011;8369;48.030;11.598;2023-03-08T06:55:40;17.53;;;9.43;;
16512;SDS011;8369;48.030;11.598;2023-03-08T06:58:08;24.00;;;8.77;;
16512;SDS011;8369;48.030;11.598;2023-03-08T07:00:35;17.83;;;9.40;;
16512;SDS011;8369;48.030;11.598;2023-03-08T07:03:04;16.03;;;9.27;;
16512;SDS011;8369;48.030;11.598;2023-03-08T07:05:31;15.17;;;8.27;;
16512;SDS011;8369;48.030;11.598;2023-03-08T07:07:59;17.17;;;8.77;;
16512;SDS011;8369;48.030;11.598;2023-03-08T07:10:27;17.70;;;8.27;;
16512;SDS011;8369;48.030;11.598;2023-03-08T07:12:54;16.77;;;8.50;;
16512;SDS011;8369;48.030;11.598;2023-03-08T07:15:22;13.37;;;8.33;;
16512;SDS011;8369;48.030;11.598;2023-03-08T07:17:51;17.03;;;9.17;;
16512;SDS011;8369;48.030;11.598;2023-03-08T07:20:33;13.10;;;8.53;;
16512;SDS011;8369;48.030;11.598;2023-03-08T07:23:01;14.47;;;8.57;;
16512;SDS011;8369;48.030;11.598;2023-03-08T07:25:29;17.40;;;7.83;;
16512;SDS011;8369;48.030;11.598;2023-03-08T07:27:59;15.00;;;8.50;;
16512;SDS011;8369;48.030;11.598;2023-03-08T07:30:26;15.40;;;8.77;;
16512;SDS011;8369;48.030;11.598;2023-03-08T07:32:52;13.57;;;8.10;;
16512;SDS011;8369;48.030;11.598;2023-03-08T07:35:19;15.17;;;8.50;;
16512;SDS011;8369;48.030;11.598;2023-03-08T07:37:46;14.93;;;7.57;;
16512;SDS011;8369;48.030;11.598;2023-03-08T07:40:13;13.37;;;7.63;;
16512;SDS011;8369;48.030;11.598;2023-03-08T07:42:42;12.93;;;7.97;;
16512;SDS011;8369;48.030;11.598;2023-03-08T07:45:12;16.27;;;9.30;;
16512;SDS011;8369;48.030;11.598;2023-03-08T07:47:39;15.20;;;8.13;;
16512;SDS011;8369;48.030;11.598;2023-03-08T07:50:07;15.20;;;8.03;;
16512;SDS011;8369;48.030;11.598;2023-03-08T07:52:33;13.17;;;7.73;;
16512;SDS011;8369;48.030;11.598;2023-03-08T07:55:00;12.40;;;7.63;;
16512;SDS011;8369;48.030;11.598;2023-03-08T07:57:28;31.97;;;8.57;;
16512;SDS011;8369;48.030;11.598;2023-03-08T07:59:55;13.67;;;7.73;;
16512;SDS011;8369;48.030;11.598;2023-03-08T08:02:22;13.13;;;7.80;;
16512;SDS011;8369;48.030;11.598;2023-03-08T08:04:49;13.67;;;8.17;;
16512;SDS011;8369;48.030;11.598;2023-03-08T08:07:16;24.60;;;12.23;;
16512;SDS011;8369;48.030;11.598;2023-03-08T08:09:42;30.37;;;14.30;;
16512;SDS011;8369;48.030;11.598;2023-03-08T08:12:11;31.23;;;14.00;;
16512;SDS011;8369;48.030;11.598;2023-03-08T08:14:38;16.67;;;8.93;;
16512;SDS011;8369;48.030;11.598;2023-03-08T08:17:06;12.50;;;7.97;;
16512;SDS011;8369;48.030;11.598;2023-03-08T08:19:32;14.53;;;8.40;;
16512;SDS011;8369;48.030;11.598;2023-03-08T08:22:01;15.70;;;7.97;;
16512;SDS011;8369;48.030;11.598;2023-03-08T08:24:29;17.27;;;9.60;;
16512;SDS011;8369;48.030;11.598;2023-03-08T08:26:57;14.80;;;9.70;;
16512;SDS011;8369;48.030;11.598;2023-03-08T08:29:24;14.27;;;8.40;;
16512;SDS011;8369;48.030;11.598;2023-03-08T08:31:50;13.33;;;8.83;;
16512;SDS011;8369;48.030;11.598;2023-03-08T08:34:20;15.73;;;8.30;;
16512;SDS011;8369;48.030;11.598;2023-03-08T08:36:48;21.80;;;9.00;;
16512;SDS011;8369;48.030;11.598;2023-03-08T08:39:16;17.00;;;8.67;;
16512;SDS011;8369;48.030;11.598;2023-03-08T08:41:42;14.97;;;8.07;;
16512;SDS011;8369;48.030;11.598;2023-03-08T08:44:11;14.03;;;7.67;;
16512;SDS011;8369;48.030;11.598;2023-03-08T08:46:38;14.43;;;8.53;;
16512;SDS011;8369;48.030;11.598;2023-03-08T08:49:05;14.87;;;8.40;;
16512;SDS011;8369;48.030;11.598;2023-03-08T08:51:32;16.43;;;8.40;;
16512;SDS011;8369;48.030;11.598;2023-03-08T08:53:58;14.70;;;8.53;;
16512;SDS011;8369;48.030;11.598;2023-03-08T08:56:25;14.73;;;7.87;;
16512;SDS011;8369;48.030;11.598;2023-03-08T08:58:55;18.03;;;8.87;;
16512;SDS011;8369;48.030;11.598;2023-03-08T09:01:24;12.27;;;8.00;;
16512;SDS011;8369;48.030;11.598;2023-03-08T09:03:53;14.50;;;8.43;;
16512;SDS011;8369;48.030;11.598;2023-03-08T09:06:22;15.57;;;8.43;;
16512;SDS011;8369;48.030;11.598;2023-03-08T09:08:52;13.00;;;8.00;;
16512;SDS011;8369;48.030;11.598;2023-03-08T09:11:21;15.40;;;8.33;;
16512;SDS011;8369;48.030;11.598;2023-03-08T09:13:48;12.87;;;8.13;;
16512;SDS011;8369;48.030;11.598;2023-03-08T09:16:16;13.20;;;8.20;;
16512;SDS011;8369;48.030;11.598;2023-03-08T09:18:50;15.17;;;9.03;;
16512;SDS011;8369;48.030;11.598;2023-03-08T09:21:18;17.43;;;9.17;;
16512;SDS011;8369;48.030;11.598;2023-03-08T09:23:44;14.63;;;8.97;;
16512;SDS011;8369;48.030;11.598;2023-03-08T09:26:12;16.10;;;8.70;;
16512;SDS011;8369;48.030;11.598;2023-03-08T09:28:39;15.50;;;7.93;;
16512;SDS011;8369;48.030;11.598;2023-03-08T09:31:09;16.20;;;8.77;;
16512;SDS011;8369;48.030;11.598;2023-03-08T09:33:40;15.37;;;8.23;;
16512;SDS011;8369;48.030;11.598;2023-03-08T09:36:07;13.07;;;8.23;;
16512;SDS011;8369;48.030;11.598;2023-03-08T09:38:34;15.30;;;8.40;;
16512;SDS011;8369;48.030;11.598;2023-03-08T09:46:30;16.30;;;8.63;;
16512;SDS011;8369;48.030;11.598;2023-03-08T09:49:01;12.97;;;7.87;;
16512;SDS011;8369;48.030;11.598;2023-03-08T09:51:37;14.60;;;8.70;;
16512;SDS011;8369;48.030;11.598;2023-03-08T09:54:09;30.10;;;8.40;;
16512;SDS011;8369;48.030;11.598;2023-03-08T09:56:47;15.73;;;9.10;;
16512;SDS011;8369;48.030;11.598;2023-03-08T09:59:18;20.30;;;9.30;;
16512;SDS011;8369;48.030;11.598;2023-03-08T10:01:58;14.30;;;8.17;;
16512;SDS011;8369;48.030;11.598;2023-03-08T10:04:38;14.33;;;8.47;;
16512;SDS011;8369;48.030;11.598;2023-03-08T10:07:40;17.10;;;8.53;;
16512;SDS011;8369;48.030;11.598;2023-03-08T10:16:11;15.63;;;8.63;;
16512;SDS011;8369;48.030;11.598;2023-03-08T10:18:57;13.83;;;8.70;;
16512;SDS011;8369;48.030;11.598;2023-03-08T10:22:06;22.67;;;8.47;;
16512;SDS011;8369;48.030;11.598;2023-03-08T10:25:17;15.80;;;8.60;;
16512;SDS011;8369;48.030;11.598;2023-03-08T10:27:52;18.17;;;9.00;;
16512;SDS011;8369;48.030;11.598;2023-03-08T10:30:22;13.87;;;8.00;;
16512;SDS011;8369;48.030;11.598;2023-03-08T10:32:53;13.47;;;8.07;;
16512;SDS011;8369;48.030;11.598;2023-03-08T10:35:37;16.87;;;8.70;;
16512;SDS011;8369;48.030;11.598;2023-03-08T10:38:27;13.43;;;8.30;;
16512;SDS011;8369;48.030;11.598;2023-03-08T10:41:14;14.83;;;8.57;;
16512;SDS011;8369;48.030;11.598;2023-03-08T10:46:18;14.23;;;8.70;;
16512;SDS011;8369;48.030;11.598;2023-03-08T10:49:09;12.90;;;7.97;;
16512;SDS011;8369;48.030;11.598;2023-03-08T10:51:55;12.90;;;8.60;;
16512;SDS011;8369;48.030;11.598;2023-03-08T10:54:24;16.90;;;8.77;;
16512;SDS011;8369;48.030;11.598;2023-03-08T10:56:54;13.97;;;7.70;;
16512;SDS011;8369;48.030;11.598;2023-03-08T10:59:25;17.47;;;9.40;;
16512;SDS011;8369;48.030;11.598;2023-03-08T11:04:37;14.70;;;8.90;;
16512;SDS011;8369;48.030;11.598;2023-03-08T11:07:39;12.93;;;8.20;;
16512;SDS011;8369;48.030;11.598;2023-03-08T11:10:17;18.40;;;8.43;;
16512;SDS011;8369;48.030;11.598;2023-03-08T11:12:45;13.67;;;8.57;;
16512;SDS011;8369;48.030;11.598;2023-03-08T11:15:13;16.13;;;8.50;;
16512;SDS011;8369;48.030;11.598;2023-03-08T11:20:20;13.97;;;8.50;;
16512;SDS011;8369;48.030;11.598;2023-03-08T11:26:17;14.73;;;8.27;;
16512;SDS011;8369;48.030;11.598;2023-03-08T11:29:23;13.97;;;7.93;;
16512;SDS011;8369;48.030;11.598;2023-03-08T11:37:24;13.20;;;7.40;;
16512;SDS011;8369;48.030;11.598;2023-03-08T11:40:23;10.57;;;6.47;;
16512;SDS011;8369;48.030;11.598;2023-03-08T11:51:28;12.07;;;7.43;;
16512;SDS011;8369;48.030;11.598;2023-03-08T12:07:37;10.23;;;5.77;;
16512;SDS011;8369;48.030;11.598;2023-03-08T12:12:47;9.40;;;5.97;;
16512;SDS011;8369;48.030;11.598;2023-03-08T12:15:47;13.43;;;6.30;;
16512;SDS011;8369;48.030;11.598;2023-03-08T12:18:37;11.00;;;7.30;;
16512;SDS011;8369;48.030;11.598;2023-03-08T12:21:45;12.53;;;7.07;;
16512;SDS011;8369;48.030;11.598;2023-03-08T12:27:05;11.33;;;6.90;;
16512;SDS011;8369;48.030;11.598;2023-03-08T12:32:39;12.93;;;7.93;;
16512;SDS011;8369;48.030;11.598;2023-03-08T12:35:24;15.67;;;8.67;;
16512;SDS011;8369;48.030;11.598;2023-03-08T12:40:42;12.07;;;7.00;;
16512;SDS011;8369;48.030;11.598;2023-03-08T12:43:13;12.83;;;7.20;;
16512;SDS011;8369;48.030;11.598;2023-03-08T12:48:27;11.70;;;6.43;;
16512;SDS011;8369;48.030;11.598;2023-03-08T12:51:07;8.83;;;5.40;;
16512;SDS011;8369;48.030;11.598;2023-03-08T12:53:37;7.87;;;4.87;;
16512;SDS011;8369;48.030;11.598;2023-03-08T12:58:59;6.40;;;4.37;;
16512;SDS011;8369;48.030;11.598;2023-03-08T13:20:16;4.10;;;2.80;;
16512;SDS011;8369;48.030;11.598;2023-03-08T13:28:27;0.97;;;0.97;;
16512;SDS011;8369;48.030;11.598;2023-03-08T13:31:15;0.70;;;0.70;;
16512;SDS011;8369;48.030;11.598;2023-03-08T13:33:50;1.10;;;1.00;;
16512;SDS011;8369;48.030;11.598;2023-03-08T13:36:20;1.00;;;1.00;;
16512;SDS011;8369;48.030;11.598;2023-03-08T13:39:02;0.90;;;0.90;;
16512;SDS011;8369;48.030;11.598;2023-03-08T13:44:03;1.10;;;1.00;;
16512;SDS011;8369;48.030;11.598;2023-03-08T13:46:59;0.80;;;0.80;;
16512;SDS011;8369;48.030;11.598;2023-03-08T13:49:32;0.97;;;0.90;;
16512;SDS011;8369;48.030;11.598;2023-03-08T13:52:02;1.73;;;1.40;;
16512;SDS011;8369;48.030;11.598;2023-03-08T13:54:36;0.80;;;0.80;;
16512;SDS011;8369;48.030;11.598;2023-03-08T13:57:16;3.20;;;2.30;;
16512;SDS011;8369;48.030;11.598;2023-03-08T13:59:55;1.97;;;1.40;;
16512;SDS011;8369;48.030;11.598;2023-03-08T14:02:25;8.93;;;5.13;;
16512;SDS011;8369;48.030;11.598;2023-03-08T14:04:53;3.33;;;1.60;;
16512;SDS011;8369;48.030;11.598;2023-03-08T14:07:24;5.27;;;3.40;;
16512;SDS011;8369;48.030;11.598;2023-03-08T14:09:52;2.80;;;1.67;;
16512;SDS011;8369;48.030;11.598;2023-03-08T14:12:20;1.23;;;1.10;;
16512;SDS011;8369;48.030;11.598;2023-03-08T14:14:51;2.90;;;1.90;;
16512;SDS011;8369;48.030;11.598;2023-03-08T14:17:28;1.03;;;0.97;;
16512;SDS011;8369;48.030;11.598;2023-03-08T14:20:12;3.40;;;2.40;;
16512;SDS011;8369;48.030;11.598;2023-03-08T14:22:49;1.20;;;1.03;;
16512;SDS011;8369;48.030;11.598;2023-03-08T14:25:26;6.00;;;1.70;;
16512;SDS011;8369;48.030;11.598;2023-03-08T14:27:54;1.43;;;0.90;;
16512;SDS011;8369;48.030;11.598;2023-03-08T14:30:25;3.87;;;2.77;;
16512;SDS011;8369;48.030;11.598;2023-03-08T14:35:51;0.87;;;0.87;;
16512;SDS011;8369;48.030;11.598;2023-03-08T14:38:22;1.73;;;1.30;;
16512;SDS011;8369;48.030;11.598;2023-03-08T14:40:51;1.20;;;1.10;;
16512;SDS011;8369;48.030;11.598;2023-03-08T14:43:22;1.33;;;1.00;;
16512;SDS011;8369;48.030;11.598;2023-03-08T14:45:51;0.90;;;0.90;;
16512;SDS011;8369;48.030;11.598;2023-03-08T14:48:27;1.10;;;1.00;;
16512;SDS011;8369;48.030;11.598;2023-03-08T14:50:58;1.53;;;1.10;;
16512;SDS011;8369;48.030;11.598;2023-03-08T14:55:57;0.97;;;0.90;;
16512;SDS011;8369;48.030;11.598;2023-03-08T14:58:29;1.77;;;1.10;;
16512;SDS011;8369;48.030;11.598;2023-03-08T15:00:57;0.90;;;0.90;;
16512;SDS011;8369;48.030;11.598;2023-03-08T15:03:26;1.63;;;1.50;;
16512;SDS011;8369;48.030;11.598;2023-03-08T15:05:53;3.93;;;2.43;;
16512;SDS011;8369;48.030;11.598;2023-03-08T15:08:20;1.80;;;1.37;;
16512;SDS011;8369;48.030;11.598;2023-03-08T15:10:47;4.07;;;2.40;;
16512;SDS011;8369;48.030;11.598;2023-03-08T15:13:16;1.60;;;1.37;;
16512;SDS011;8369;48.030;11.598;2023-03-08T15:15:43;3.37;;;1.97;;
16512;SDS011;8369;48.030;11.598;2023-03-08T15:18:09;5.23;;;1.93;;
16512;SDS011;8369;48.030;11.598;2023-03-08T15:20:37;2.43;;;1.50;;
16512;SDS011;8369;48.030;11.598;2023-03-08T15:23:09;3.83;;;2.40;;
16512;SDS011;8369;48.030;11.598;2023-03-08T15:25:41;1.63;;;1.50;;
16512;SDS011;8369;48.030;11.598;2023-03-08T15:28:09;2.03;;;1.60;;
16512;SDS011;8369;48.030;11.598;2023-03-08T15:30:37;1.53;;;1.30;;
16512;SDS011;8369;48.030;11.598;2023-03-08T15:33:05;2.23;;;1.50;;
16512;SDS011;8369;48.030;11.598;2023-03-08T15:35:32;2.33;;;1.10;;
16512;SDS011;8369;48.030;11.598;2023-03-08T15:37:58;1.67;;;1.13;;
16512;SDS011;8369;48.030;11.598;2023-03-08T15:40:25;1.23;;;1.13;;
16512;SDS011;8369;48.030;11.598;2023-03-08T15:42:53;1.17;;;0.90;;
16512;SDS011;8369;48.030;11.598;2023-03-08T15:45:20;1.43;;;0.97;;
16512;SDS011;8369;48.030;11.598;2023-03-08T15:48:00;1.13;;;1.00;;
16512;SDS011;8369;48.030;11.598;2023-03-08T15:50:31;1.77;;;1.33;;
16512;SDS011;8369;48.030;11.598;2023-03-08T15:53:00;0.90;;;0.90;;
16512;SDS011;8369;48.030;11.598;2023-03-08T15:55:27;1.63;;;1.27;;
16512;SDS011;8369;48.030;11.598;2023-03-08T15:57:57;1.13;;;1.03;;
16512;SDS011;8369;48.030;11.598;2023-03-08T16:00:24;1.53;;;1.10;;
16512;SDS011;8369;48.030;11.598;2023-03-08T16:02:52;1.47;;;1.07;;
16512;SDS011;8369;48.030;11.598;2023-03-08T16:05:22;3.80;;;1.10;;
16512;SDS011;8369;48.030;11.598;2023-03-08T16:07:55;1.33;;;1.23;;
16512;SDS011;8369;48.030;11.598;2023-03-08T16:10:27;1.47;;;1.20;;
16512;SDS011;8369;48.030;11.598;2023-03-08T16:12:55;1.20;;;1.10;;
16512;SDS011;8369;48.030;11.598;2023-03-08T16:15:22;3.07;;;1.40;;
16512;SDS011;8369;48.030;11.598;2023-03-08T16:17:50;2.53;;;1.20;;
16512;SDS011;8369;48.030;11.598;2023-03-08T16:20:18;1.63;;;1.20;;
16512;SDS011;8369;48.030;11.598;2023-03-08T16:22:47;2.33;;;0.80;;
16512;SDS011;8369;48.030;11.598;2023-03-08T16:25:15;0.90;;;0.90;;
16512;SDS011;8369;48.030;11.598;2023-03-08T16:27:42;1.10;;;1.10;;
16512;SDS011;8369;48.030;11.598;2023-03-08T16:30:10;1.03;;;1.03;;
16512;SDS011;8369;48.030;11.598;2023-03-08T16:32:38;1.00;;;1.00;;
16512;SDS011;8369;48.030;11.598;2023-03-08T16:35:06;1.23;;;1.10;;
16512;SDS011;8369;48.030;11.598;2023-03-08T16:37:33;1.00;;;1.00;;
16512;SDS011;8369;48.030;11.598;2023-03-08T16:40:00;1.30;;;1.20;;
16512;SDS011;8369;48.030;11.598;2023-03-08T16:42:28;1.23;;;1.10;;
16512;SDS011;8369;48.030;11.598;2023-03-08T16:44:55;2.37;;;1.00;;
16512;SDS011;8369;48.030;11.598;2023-03-08T16:47:22;0.90;;;0.90;;
16512;SDS011;8369;48.030;11.598;2023-03-08T16:49:50;1.50;;;1.17;;
16512;SDS011;8369;48.030;11.598;2023-03-08T16:52:16;1.20;;;1.10;;